sensor_id;sensor_type;location;lat;lon;timestamp;temperature;humidity
580;DHT22;276;48.392;9.950;2022-12-20T00:01:28;4.80;99.90
580;DHT22;276;48.392;9.950;2022-12-20T00:03:55;4.80;99.90
580;DHT22;276;48.392;9.950;2022-12-20T00:06:21;4.80;99.90
580;DHT22;276;48.392;9.950;2022-12-20T00:08:54;4.80;99.90
580;DHT22;276;48.392;9.950;2022-12-20T00:11:20;4.80;99.90
580;DHT22;276;48.392;9.950;2022-12-20T00:13:46;4.80;99.90
580;DHT22;276;48.392;9.950;2022-12-20T00:16:20;4.80;99.90
580;DHT22;276;48.392;9.950;2022-12-20T00:18:49;4.80;99.90
580;DHT22;276;48.392;9.950;2022-12-20T00:21:15;4.80;99.90
580;DHT22;276;48.392;9.950;2022-12-20T00:23:43;4.80;99.90
580;DHT22;276;48.392;9.950;2022-12-20T00:26:13;4.80;99.90
580;DHT22;276;48.392;9.950;2022-12-20T00:28:40;4.80;99.90
580;DHT22;276;48.392;9.950;2022-12-20T00:31:10;4.80;99.90
580;DHT22;276;48.392;9.950;2022-12-20T00:33:37;4.80;99.90
580;DHT22;276;48.392;9.950;2022-12-20T00:36:04;4.80;99.90
580;DHT22;276;48.392;9.950;2022-12-20T00:38:30;4.80;99.90
580;DHT22;276;48.392;9.950;2022-12-20T00:41:09;4.80;99.90
580;DHT22;276;48.392;9.950;2022-12-20T00:43:36;4.80;99.90
580;DHT22;276;48.392;9.950;2022-12-20T00:46:02;4.80;99.90
580;DHT22;276;48.392;9.950;2022-12-20T00:48:30;4.80;99.90
580;DHT22;276;48.392;9.950;2022-12-20T00:51:01;4.70;99.90
580;DHT22;276;48.392;9.950;2022-12-20T00:53:27;4.70;99.90
580;DHT22;276;48.392;9.950;2022-12-20T00:55:58;4.70;99.90
580;DHT22;276;48.392;9.950;2022-12-20T00:58:26;4.70;99.90
580;DHT22;276;48.392;9.950;2022-12-20T01:00:52;4.70;99.90
580;DHT22;276;48.392;9.950;2022-12-20T01:03:18;4.70;99.90
580;DHT22;276;48.392;9.950;2022-12-20T01:05:57;4.70;99.90
580;DHT22;276;48.392;9.950;2022-12-20T01:08:27;4.70;99.90
580;DHT22;276;48.392;9.950;2022-12-20T01:11:06;4.70;99.90
580;DHT22;276;48.392;9.950;2022-12-20T01:13:35;4.70;99.90
580;DHT22;276;48.392;9.950;2022-12-20T01:16:11;4.60;99.90
580;DHT22;276;48.392;9.950;2022-12-20T01:18:39;4.60;99.90
580;DHT22;276;48.392;9.950;2022-12-20T01:21:09;4.70;99.90
580;DHT22;276;48.392;9.950;2022-12-20T01:23:35;4.70;99.90
580;DHT22;276;48.392;9.950;2022-12-20T01:26:05;4.60;99.90
580;DHT22;276;48.392;9.950;2022-12-20T01:28:37;4.60;99.90
580;DHT22;276;48.392;9.950;2022-12-20T01:31:08;4.60;99.90
580;DHT22;276;48.392;9.950;2022-12-20T01:33:35;4.60;99.90
580;DHT22;276;48.392;9.950;2022-12-20T01:36:05;4.60;99.90
580;DHT22;276;48.392;9.950;2022-12-20T01:38:32;4.60;99.90
580;DHT22;276;48.392;9.950;2022-12-20T01:41:00;4.60;99.90
580;DHT22;276;48.392;9.950;2022-12-20T01:43:46;4.60;99.90
580;DHT22;276;48.392;9.950;2022-12-20T01:46:17;4.60;99.90
580;DHT22;276;48.392;9.950;2022-12-20T01:48:47;4.60;99.90
580;DHT22;276;48.392;9.950;2022-12-20T01:51:13;4.50;99.90
580;DHT22;276;48.392;9.950;2022-12-20T01:53:39;4.60;99.90
580;DHT22;276;48.392;9.950;2022-12-20T01:56:08;4.50;99.90
580;DHT22;276;48.392;9.950;2022-12-20T01:58:36;4.50;99.90
580;DHT22;276;48.392;9.950;2022-12-20T02:01:06;4.50;99.90
580;DHT22;276;48.392;9.950;2022-12-20T02:03:34;4.50;99.90
580;DHT22;276;48.392;9.950;2022-12-20T02:06:15;4.50;99.90
580;DHT22;276;48.392;9.950;2022-12-20T02:08:45;4.50;99.90
580;DHT22;276;48.392;9.950;2022-12-20T02:14:27;4.40;99.90
580;DHT22;276;48.392;9.950;2022-12-20T02:19:46;4.40;99.90
580;DHT22;276;48.392;9.950;2022-12-20T02:28:29;4.30;99.90
580;DHT22;276;48.392;9.950;2022-12-20T02:31:04;4.30;99.90
580;DHT22;276;48.392;9.950;2022-12-20T02:33:32;4.40;99.90
580;DHT22;276;48.392;9.950;2022-12-20T02:35:57;4.40;99.90
580;DHT22;276;48.392;9.950;2022-12-20T02:38:25;4.30;99.90
580;DHT22;276;48.392;9.950;2022-12-20T02:40:55;4.40;99.90
580;DHT22;276;48.392;9.950;2022-12-20T02:43:26;4.40;99.90
580;DHT22;276;48.392;9.950;2022-12-20T02:46:15;4.40;99.90
580;DHT22;276;48.392;9.950;2022-12-20T02:48:41;4.40;99.90
580;DHT22;276;48.392;9.950;2022-12-20T02:51:08;4.40;99.90
580;DHT22;276;48.392;9.950;2022-12-20T02:53:38;4.40;99.90
580;DHT22;276;48.392;9.950;2022-12-20T02:58:45;4.40;99.90
580;DHT22;276;48.392;9.950;2022-12-20T03:01:16;4.40;99.90
580;DHT22;276;48.392;9.950;2022-12-20T03:03:51;4.40;99.90
580;DHT22;276;48.392;9.950;2022-12-20T03:06:18;4.40;99.90
580;DHT22;276;48.392;9.950;2022-12-20T03:08:47;4.40;99.90
580;DHT22;276;48.392;9.950;2022-12-20T03:11:12;4.40;99.90
580;DHT22;276;48.392;9.950;2022-12-20T03:13:39;4.40;99.90
580;DHT22;276;48.392;9.950;2022-12-20T03:16:05;4.40;99.90
580;DHT22;276;48.392;9.950;2022-12-20T03:18:33;4.40;99.90
580;DHT22;276;48.392;9.950;2022-12-20T03:21:03;4.40;99.90
580;DHT22;276;48.392;9.950;2022-12-20T03:23:29;4.30;99.90
580;DHT22;276;48.392;9.950;2022-12-20T03:25:57;4.40;99.90
580;DHT22;276;48.392;9.950;2022-12-20T03:28:23;4.30;99.90
580;DHT22;276;48.392;9.950;2022-12-20T03:30:48;4.30;99.90
580;DHT22;276;48.392;9.950;2022-12-20T03:33:19;4.30;99.90
580;DHT22;276;48.392;9.950;2022-12-20T03:35:46;4.30;99.90
580;DHT22;276;48.392;9.950;2022-12-20T03:38:14;4.30;99.90
580;DHT22;276;48.392;9.950;2022-12-20T03:40:40;4.30;99.90
580;DHT22;276;48.392;9.950;2022-12-20T03:43:05;4.30;99.90
580;DHT22;276;48.392;9.950;2022-12-20T03:45:33;4.20;99.90
580;DHT22;276;48.392;9.950;2022-12-20T03:48:01;4.20;99.90
580;DHT22;276;48.392;9.950;2022-12-20T03:50:27;4.20;99.90
580;DHT22;276;48.392;9.950;2022-12-20T03:52:55;4.20;99.90
580;DHT22;276;48.392;9.950;2022-12-20T03:55:22;4.20;99.90
580;DHT22;276;48.392;9.950;2022-12-20T03:57:48;4.20;99.90
580;DHT22;276;48.392;9.950;2022-12-20T04:00:14;4.20;99.90
580;DHT22;276;48.392;9.950;2022-12-20T04:02:43;4.20;99.90
580;DHT22;276;48.392;9.950;2022-12-20T04:05:13;4.20;99.90
580;DHT22;276;48.392;9.950;2022-12-20T04:07:41;4.20;99.90
580;DHT22;276;48.392;9.950;2022-12-20T04:10:10;4.10;99.90
580;DHT22;276;48.392;9.950;2022-12-20T04:12:36;4.20;99.90
580;DHT22;276;48.392;9.950;2022-12-20T04:15:04;4.20;99.90
580;DHT22;276;48.392;9.950;2022-12-20T04:17:29;4.20;99.90
580;DHT22;276;48.392;9.950;2022-12-20T04:19:55;4.20;99.90
580;DHT22;276;48.392;9.950;2022-12-20T04:22:23;4.20;99.90
580;DHT22;276;48.392;9.950;2022-12-20T04:24:51;4.20;99.90
580;DHT22;276;48.392;9.950;2022-12-20T04:27:16;4.20;99.90
580;DHT22;276;48.392;9.950;2022-12-20T04:29:47;4.20;99.90
580;DHT22;276;48.392;9.950;2022-12-20T04:32:12;4.20;99.90
580;DHT22;276;48.392;9.950;2022-12-20T04:34:38;4.20;99.90
580;DHT22;276;48.392;9.950;2022-12-20T04:37:05;4.20;99.90
580;DHT22;276;48.392;9.950;2022-12-20T04:39:33;4.20;99.90
580;DHT22;276;48.392;9.950;2022-12-20T04:41:59;4.20;99.90
580;DHT22;276;48.392;9.950;2022-12-20T04:44:24;4.20;99.90
580;DHT22;276;48.392;9.950;2022-12-20T04:46:52;4.20;99.90
580;DHT22;276;48.392;9.950;2022-12-20T04:49:20;4.10;99.90
580;DHT22;276;48.392;9.950;2022-12-20T04:51:48;4.20;99.90
580;DHT22;276;48.392;9.950;2022-12-20T04:54:14;4.20;99.90
580;DHT22;276;48.392;9.950;2022-12-20T04:56:41;4.20;99.90
580;DHT22;276;48.392;9.950;2022-12-20T04:59:07;4.10;99.90
580;DHT22;276;48.392;9.950;2022-12-20T05:01:36;4.10;99.90
580;DHT22;276;48.392;9.950;2022-12-20T05:04:04;4.10;99.90
580;DHT22;276;48.392;9.950;2022-12-20T05:06:29;4.20;99.90
580;DHT22;276;48.392;9.950;2022-12-20T05:08:55;4.20;99.90
580;DHT22;276;48.392;9.950;2022-12-20T05:11:20;4.20;99.90
580;DHT22;276;48.392;9.950;2022-12-20T05:13:46;4.20;99.90
580;DHT22;276;48.392;9.950;2022-12-20T05:16:14;4.20;99.90
580;DHT22;276;48.392;9.950;2022-12-20T05:18:40;4.30;99.90
580;DHT22;276;48.392;9.950;2022-12-20T05:21:06;4.30;99.90
580;DHT22;276;48.392;9.950;2022-12-20T05:23:50;4.30;99.90
580;DHT22;276;48.392;9.950;2022-12-20T05:26:36;4.30;99.90
580;DHT22;276;48.392;9.950;2022-12-20T05:29:05;4.30;99.90
580;DHT22;276;48.392;9.950;2022-12-20T05:31:30;4.30;99.90
580;DHT22;276;48.392;9.950;2022-12-20T05:33:59;4.40;99.90
580;DHT22;276;48.392;9.950;2022-12-20T05:36:27;4.40;99.90
580;DHT22;276;48.392;9.950;2022-12-20T05:38:53;4.40;99.90
580;DHT22;276;48.392;9.950;2022-12-20T05:41:19;4.40;99.90
580;DHT22;276;48.392;9.950;2022-12-20T05:43:46;4.50;99.90
580;DHT22;276;48.392;9.950;2022-12-20T05:46:14;4.40;99.90
580;DHT22;276;48.392;9.950;2022-12-20T05:48:40;4.50;99.90
580;DHT22;276;48.392;9.950;2022-12-20T05:51:08;4.50;99.90
580;DHT22;276;48.392;9.950;2022-12-20T05:53:35;4.50;99.90
580;DHT22;276;48.392;9.950;2022-12-20T05:56:01;4.50;99.90
580;DHT22;276;48.392;9.950;2022-12-20T05:58:27;4.50;99.90
580;DHT22;276;48.392;9.950;2022-12-20T06:00:53;4.50;99.90
580;DHT22;276;48.392;9.950;2022-12-20T06:03:21;4.50;99.90
580;DHT22;276;48.392;9.950;2022-12-20T06:05:51;4.50;99.90
580;DHT22;276;48.392;9.950;2022-12-20T06:08:19;4.50;99.90
580;DHT22;276;48.392;9.950;2022-12-20T06:10:47;4.50;99.90
580;DHT22;276;48.392;9.950;2022-12-20T06:13:16;4.50;99.90
580;DHT22;276;48.392;9.950;2022-12-20T06:15:42;4.50;99.90
580;DHT22;276;48.392;9.950;2022-12-20T06:18:10;4.50;99.90
580;DHT22;276;48.392;9.950;2022-12-20T06:20:38;4.50;99.90
580;DHT22;276;48.392;9.950;2022-12-20T06:23:06;4.50;99.90
580;DHT22;276;48.392;9.950;2022-12-20T06:25:33;4.60;99.90
580;DHT22;276;48.392;9.950;2022-12-20T06:28:02;4.60;99.90
580;DHT22;276;48.392;9.950;2022-12-20T06:30:30;4.60;99.90
580;DHT22;276;48.392;9.950;2022-12-20T06:32:56;4.60;99.90
580;DHT22;276;48.392;9.950;2022-12-20T06:35:21;4.60;99.90
580;DHT22;276;48.392;9.950;2022-12-20T06:37:47;4.60;99.90
580;DHT22;276;48.392;9.950;2022-12-20T06:40:13;4.60;99.90
580;DHT22;276;48.392;9.950;2022-12-20T06:42:43;4.60;99.90
580;DHT22;276;48.392;9.950;2022-12-20T06:45:11;4.60;99.90
580;DHT22;276;48.392;9.950;2022-12-20T06:47:37;4.60;99.90
580;DHT22;276;48.392;9.950;2022-12-20T06:50:04;4.60;99.90
580;DHT22;276;48.392;9.950;2022-12-20T06:52:30;4.60;99.90
580;DHT22;276;48.392;9.950;2022-12-20T06:54:58;4.60;99.90
580;DHT22;276;48.392;9.950;2022-12-20T06:57:26;4.60;99.90
580;DHT22;276;48.392;9.950;2022-12-20T06:59:51;4.60;99.90
580;DHT22;276;48.392;9.950;2022-12-20T07:02:17;4.60;99.90
580;DHT22;276;48.392;9.950;2022-12-20T07:04:42;4.60;99.90
580;DHT22;276;48.392;9.950;2022-12-20T07:07:10;4.60;99.90
580;DHT22;276;48.392;9.950;2022-12-20T07:09:39;4.60;99.90
580;DHT22;276;48.392;9.950;2022-12-20T07:12:08;4.60;99.90
580;DHT22;276;48.392;9.950;2022-12-20T07:14:34;4.70;99.90
580;DHT22;276;48.392;9.950;2022-12-20T07:16:59;4.70;99.90
580;DHT22;276;48.392;9.950;2022-12-20T07:19:25;4.70;99.90
580;DHT22;276;48.392;9.950;2022-12-20T07:21:51;4.70;99.90
580;DHT22;276;48.392;9.950;2022-12-20T07:24:17;4.70;99.90
580;DHT22;276;48.392;9.950;2022-12-20T07:26:45;4.70;99.90
580;DHT22;276;48.392;9.950;2022-12-20T07:29:12;4.70;99.90
580;DHT22;276;48.392;9.950;2022-12-20T07:31:40;4.80;99.90
580;DHT22;276;48.392;9.950;2022-12-20T07:34:06;4.80;99.90
580;DHT22;276;48.392;9.950;2022-12-20T07:36:34;4.80;99.90
580;DHT22;276;48.392;9.950;2022-12-20T07:38:59;4.80;99.90
580;DHT22;276;48.392;9.950;2022-12-20T07:41:27;4.90;99.90
580;DHT22;276;48.392;9.950;2022-12-20T07:43:58;4.90;99.90
580;DHT22;276;48.392;9.950;2022-12-20T07:46:26;4.90;99.90
580;DHT22;276;48.392;9.950;2022-12-20T07:48:57;4.90;99.90
580;DHT22;276;48.392;9.950;2022-12-20T07:51:28;5.00;99.90
580;DHT22;276;48.392;9.950;2022-12-20T07:54:12;5.00;99.90
580;DHT22;276;48.392;9.950;2022-12-20T07:56:42;5.00;99.90
580;DHT22;276;48.392;9.950;2022-12-20T07:59:15;5.00;99.90
580;DHT22;276;48.392;9.950;2022-12-20T08:01:44;5.00;99.90
580;DHT22;276;48.392;9.950;2022-12-20T08:04:15;5.10;99.90
580;DHT22;276;48.392;9.950;2022-12-20T08:06:48;5.10;99.90
580;DHT22;276;48.392;9.950;2022-12-20T08:09:17;5.10;99.90
580;DHT22;276;48.392;9.950;2022-12-20T08:11:47;5.10;99.90
580;DHT22;276;48.392;9.950;2022-12-20T08:14:15;5.20;99.90
580;DHT22;276;48.392;9.950;2022-12-20T08:16:42;5.20;99.90
580;DHT22;276;48.392;9.950;2022-12-20T08:19:13;5.20;99.90
580;DHT22;276;48.392;9.950;2022-12-20T08:21:38;5.20;99.90
580;DHT22;276;48.392;9.950;2022-12-20T08:24:04;5.20;99.90
580;DHT22;276;48.392;9.950;2022-12-20T08:26:32;5.30;99.90
580;DHT22;276;48.392;9.950;2022-12-20T08:29:01;5.30;99.90
580;DHT22;276;48.392;9.950;2022-12-20T08:31:28;5.30;99.90
580;DHT22;276;48.392;9.950;2022-12-20T08:33:56;5.40;99.90
580;DHT22;276;48.392;9.950;2022-12-20T08:36:27;5.40;99.90
580;DHT22;276;48.392;9.950;2022-12-20T08:38:52;5.40;99.90
580;DHT22;276;48.392;9.950;2022-12-20T08:41:18;5.50;99.90
580;DHT22;276;48.392;9.950;2022-12-20T08:43:46;5.50;99.90
580;DHT22;276;48.392;9.950;2022-12-20T08:46:12;5.60;99.90
580;DHT22;276;48.392;9.950;2022-12-20T08:48:38;5.60;99.90
580;DHT22;276;48.392;9.950;2022-12-20T08:51:07;5.70;99.90
580;DHT22;276;48.392;9.950;2022-12-20T08:53:35;5.70;99.90
580;DHT22;276;48.392;9.950;2022-12-20T08:56:05;5.70;99.90
580;DHT22;276;48.392;9.950;2022-12-20T08:58:31;5.80;99.90
580;DHT22;276;48.392;9.950;2022-12-20T09:00:58;5.80;99.90
580;DHT22;276;48.392;9.950;2022-12-20T09:03:33;5.90;99.90
580;DHT22;276;48.392;9.950;2022-12-20T09:06:00;5.90;99.90
580;DHT22;276;48.392;9.950;2022-12-20T09:08:28;6.00;99.90
580;DHT22;276;48.392;9.950;2022-12-20T09:11:05;6.10;99.90
580;DHT22;276;48.392;9.950;2022-12-20T09:13:32;6.10;99.90
580;DHT22;276;48.392;9.950;2022-12-20T09:16:03;6.10;99.90
580;DHT22;276;48.392;9.950;2022-12-20T09:18:32;6.20;99.90
580;DHT22;276;48.392;9.950;2022-12-20T09:20:59;6.20;99.90
580;DHT22;276;48.392;9.950;2022-12-20T09:23:28;6.20;99.90
580;DHT22;276;48.392;9.950;2022-12-20T09:25:55;6.20;99.90
580;DHT22;276;48.392;9.950;2022-12-20T09:28:21;6.30;99.90
580;DHT22;276;48.392;9.950;2022-12-20T09:30:47;6.30;99.90
580;DHT22;276;48.392;9.950;2022-12-20T09:33:15;6.30;99.90
580;DHT22;276;48.392;9.950;2022-12-20T09:35:47;6.30;99.90
580;DHT22;276;48.392;9.950;2022-12-20T09:38:14;6.40;99.90
580;DHT22;276;48.392;9.950;2022-12-20T09:40:45;6.40;99.90
580;DHT22;276;48.392;9.950;2022-12-20T09:43:13;6.40;99.90
580;DHT22;276;48.392;9.950;2022-12-20T09:45:39;6.50;99.90
580;DHT22;276;48.392;9.950;2022-12-20T09:48:12;6.50;99.90
580;DHT22;276;48.392;9.950;2022-12-20T09:50:50;6.50;99.90
580;DHT22;276;48.392;9.950;2022-12-20T09:56:13;6.60;99.90
580;DHT22;276;48.392;9.950;2022-12-20T10:01:16;6.60;99.90
580;DHT22;276;48.392;9.950;2022-12-20T10:03:44;6.60;99.90
580;DHT22;276;48.392;9.950;2022-12-20T10:09:34;6.70;99.90
580;DHT22;276;48.392;9.950;2022-12-20T10:20:56;6.80;99.90
580;DHT22;276;48.392;9.950;2022-12-20T10:23:17;6.90;99.90
580;DHT22;276;48.392;9.950;2022-12-20T10:25:52;6.90;99.90
580;DHT22;276;48.392;9.950;2022-12-20T10:28:22;7.00;99.90
580;DHT22;276;48.392;9.950;2022-12-20T10:30:51;7.00;99.90
580;DHT22;276;48.392;9.950;2022-12-20T10:33:22;7.10;99.90
580;DHT22;276;48.392;9.950;2022-12-20T10:35:48;7.10;99.90
580;DHT22;276;48.392;9.950;2022-12-20T10:38:17;7.20;99.90
580;DHT22;276;48.392;9.950;2022-12-20T10:43:22;7.30;99.90
580;DHT22;276;48.392;9.950;2022-12-20T10:46:03;7.40;99.90
580;DHT22;276;48.392;9.950;2022-12-20T10:48:40;7.60;99.90
580;DHT22;276;48.392;9.950;2022-12-20T10:51:13;7.60;99.90
580;DHT22;276;48.392;9.950;2022-12-20T10:54:02;7.70;99.90
580;DHT22;276;48.392;9.950;2022-12-20T10:56:32;7.80;99.90
580;DHT22;276;48.392;9.950;2022-12-20T10:59:02;7.80;99.90
580;DHT22;276;48.392;9.950;2022-12-20T11:01:31;7.90;99.90
580;DHT22;276;48.392;9.950;2022-12-20T11:04:03;7.90;99.90
580;DHT22;276;48.392;9.950;2022-12-20T11:06:40;7.90;99.90
580;DHT22;276;48.392;9.950;2022-12-20T11:12:16;8.00;99.90
580;DHT22;276;48.392;9.950;2022-12-20T11:14:44;8.10;99.90
580;DHT22;276;48.392;9.950;2022-12-20T11:20:07;8.30;99.90
580;DHT22;276;48.392;9.950;2022-12-20T11:25:19;8.50;99.90
580;DHT22;276;48.392;9.950;2022-12-20T11:36:21;8.40;99.90
580;DHT22;276;48.392;9.950;2022-12-20T11:38:58;8.30;99.90
580;DHT22;276;48.392;9.950;2022-12-20T11:41:40;8.20;99.90
580;DHT22;276;48.392;9.950;2022-12-20T11:49:47;8.20;99.90
580;DHT22;276;48.392;9.950;2022-12-20T11:52:21;8.20;99.90
580;DHT22;276;48.392;9.950;2022-12-20T11:55:06;8.20;99.90
580;DHT22;276;48.392;9.950;2022-12-20T11:58:16;8.20;99.90
580;DHT22;276;48.392;9.950;2022-12-20T12:00:53;8.20;99.90
580;DHT22;276;48.392;9.950;2022-12-20T12:03:26;8.20;99.90
580;DHT22;276;48.392;9.950;2022-12-20T12:06:02;8.20;99.90
580;DHT22;276;48.392;9.950;2022-12-20T12:08:38;8.20;99.90
580;DHT22;276;48.392;9.950;2022-12-20T12:11:16;8.10;99.90
580;DHT22;276;48.392;9.950;2022-12-20T12:13:45;8.00;99.90
580;DHT22;276;48.392;9.950;2022-12-20T12:16:19;7.90;99.90
580;DHT22;276;48.392;9.950;2022-12-20T12:18:47;7.90;99.90
580;DHT22;276;48.392;9.950;2022-12-20T12:21:22;7.90;99.90
580;DHT22;276;48.392;9.950;2022-12-20T12:26:44;7.90;99.90
580;DHT22;276;48.392;9.950;2022-12-20T12:29:13;8.00;99.90
580;DHT22;276;48.392;9.950;2022-12-20T12:50:24;8.00;99.90
580;DHT22;276;48.392;9.950;2022-12-20T12:52:56;8.00;99.90
580;DHT22;276;48.392;9.950;2022-12-20T12:55:42;8.00;99.90
580;DHT22;276;48.392;9.950;2022-12-20T13:03:43;8.00;99.90
580;DHT22;276;48.392;9.950;2022-12-20T13:11:36;7.90;99.90
580;DHT22;276;48.392;9.950;2022-12-20T13:46:11;8.10;99.90
580;DHT22;276;48.392;9.950;2022-12-20T13:48:54;8.20;99.90
580;DHT22;276;48.392;9.950;2022-12-20T13:51:23;8.20;99.90
580;DHT22;276;48.392;9.950;2022-12-20T13:54:14;8.20;99.90
580;DHT22;276;48.392;9.950;2022-12-20T13:56:49;8.30;99.90
580;DHT22;276;48.392;9.950;2022-12-20T13:59:24;8.20;99.90
580;DHT22;276;48.392;9.950;2022-12-20T14:01:56;8.20;99.90
580;DHT22;276;48.392;9.950;2022-12-20T14:04:27;8.20;99.90
580;DHT22;276;48.392;9.950;2022-12-20T14:07:02;8.20;99.90
580;DHT22;276;48.392;9.950;2022-12-20T14:09:34;8.20;99.90
580;DHT22;276;48.392;9.950;2022-12-20T14:12:16;8.20;99.90
580;DHT22;276;48.392;9.950;2022-12-20T14:14:46;8.20;99.90
580;DHT22;276;48.392;9.950;2022-12-20T14:17:28;8.10;99.90
580;DHT22;276;48.392;9.950;2022-12-20T14:22:33;8.10;99.90
580;DHT22;276;48.392;9.950;2022-12-20T14:25:00;8.10;99.90
580;DHT22;276;48.392;9.950;2022-12-20T14:27:29;8.10;99.90
580;DHT22;276;48.392;9.950;2022-12-20T14:30:00;8.10;99.90
580;DHT22;276;48.392;9.950;2022-12-20T14:32:28;8.00;99.90
580;DHT22;276;48.392;9.950;2022-12-20T14:34:54;7.90;99.90
580;DHT22;276;48.392;9.950;2022-12-20T14:42:32;7.70;99.90
580;DHT22;276;48.392;9.950;2022-12-20T14:47:49;7.40;99.90
580;DHT22;276;48.392;9.950;2022-12-20T14:50:49;7.30;99.90
580;DHT22;276;48.392;9.950;2022-12-20T14:53:23;7.30;99.90
580;DHT22;276;48.392;9.950;2022-12-20T14:55:52;7.30;99.90
580;DHT22;276;48.392;9.950;2022-12-20T14:58:31;7.40;99.90
580;DHT22;276;48.392;9.950;2022-12-20T15:01:16;7.50;99.90
580;DHT22;276;48.392;9.950;2022-12-20T15:03:55;7.60;99.90
580;DHT22;276;48.392;9.950;2022-12-20T15:06:42;7.60;99.90
580;DHT22;276;48.392;9.950;2022-12-20T15:09:08;7.70;99.90
580;DHT22;276;48.392;9.950;2022-12-20T15:11:35;7.70;99.90
580;DHT22;276;48.392;9.950;2022-12-20T15:16:48;7.80;99.90
580;DHT22;276;48.392;9.950;2022-12-20T15:19:14;7.80;99.90
580;DHT22;276;48.392;9.950;2022-12-20T15:21:41;7.80;99.90
580;DHT22;276;48.392;9.950;2022-12-20T15:24:18;7.80;99.90
580;DHT22;276;48.392;9.950;2022-12-20T15:26:47;7.80;99.90
580;DHT22;276;48.392;9.950;2022-12-20T15:29:15;7.80;99.90
580;DHT22;276;48.392;9.950;2022-12-20T15:31:44;7.80;99.90
580;DHT22;276;48.392;9.950;2022-12-20T15:34:27;7.70;99.90
580;DHT22;276;48.392;9.950;2022-12-20T15:36:53;7.60;99.90
580;DHT22;276;48.392;9.950;2022-12-20T15:39:21;7.60;99.90
580;DHT22;276;48.392;9.950;2022-12-20T15:41:49;7.70;99.90
580;DHT22;276;48.392;9.950;2022-12-20T15:44:23;7.70;99.90
580;DHT22;276;48.392;9.950;2022-12-20T15:46:50;7.70;99.90
580;DHT22;276;48.392;9.950;2022-12-20T15:49:28;7.70;99.90
580;DHT22;276;48.392;9.950;2022-12-20T15:51:54;7.70;99.90
580;DHT22;276;48.392;9.950;2022-12-20T15:54:27;7.70;99.90
580;DHT22;276;48.392;9.950;2022-12-20T15:56:59;7.70;99.90
580;DHT22;276;48.392;9.950;2022-12-20T15:59:27;7.70;99.90
580;DHT22;276;48.392;9.950;2022-12-20T16:01:53;7.70;99.90
580;DHT22;276;48.392;9.950;2022-12-20T16:04:19;7.70;99.90
580;DHT22;276;48.392;9.950;2022-12-20T16:06:47;7.70;99.90
580;DHT22;276;48.392;9.950;2022-12-20T16:09:15;7.70;99.90
580;DHT22;276;48.392;9.950;2022-12-20T16:11:42;7.70;99.90
580;DHT22;276;48.392;9.950;2022-12-20T16:14:14;7.60;99.90
580;DHT22;276;48.392;9.950;2022-12-20T16:16:40;7.60;99.90
580;DHT22;276;48.392;9.950;2022-12-20T16:19:06;7.50;99.90
580;DHT22;276;48.392;9.950;2022-12-20T16:21:34;7.50;99.90
580;DHT22;276;48.392;9.950;2022-12-20T16:24:01;7.50;99.90
580;DHT22;276;48.392;9.950;2022-12-20T16:26:27;7.40;99.90
580;DHT22;276;48.392;9.950;2022-12-20T16:28:57;7.40;99.90
580;DHT22;276;48.392;9.950;2022-12-20T16:31:28;7.30;99.90
580;DHT22;276;48.392;9.950;2022-12-20T16:33:56;7.30;99.90
580;DHT22;276;48.392;9.950;2022-12-20T16:36:24;7.30;99.90
580;DHT22;276;48.392;9.950;2022-12-20T16:38:52;7.20;99.90
580;DHT22;276;48.392;9.950;2022-12-20T16:41:20;7.20;99.90
580;DHT22;276;48.392;9.950;2022-12-20T16:43:49;7.10;99.90
580;DHT22;276;48.392;9.950;2022-12-20T16:46:17;7.10;99.90
580;DHT22;276;48.392;9.950;2022-12-20T16:48:46;7.10;99.90
580;DHT22;276;48.392;9.950;2022-12-20T16:51:26;7.10;99.90
580;DHT22;276;48.392;9.950;2022-12-20T16:53:54;7.10;99.90
580;DHT22;276;48.392;9.950;2022-12-20T16:56:20;7.10;99.90
580;DHT22;276;48.392;9.950;2022-12-20T16:58:46;7.10;99.90
580;DHT22;276;48.392;9.950;2022-12-20T17:01:22;7.10;99.90
580;DHT22;276;48.392;9.950;2022-12-20T17:03:49;7.20;99.90
580;DHT22;276;48.392;9.950;2022-12-20T17:06:15;7.20;99.90
580;DHT22;276;48.392;9.950;2022-12-20T17:08:42;7.20;99.90
580;DHT22;276;48.392;9.950;2022-12-20T17:13:46;7.10;99.90
580;DHT22;276;48.392;9.950;2022-12-20T17:16:17;7.10;99.90
580;DHT22;276;48.392;9.950;2022-12-20T17:18:46;7.10;99.90
580;DHT22;276;48.392;9.950;2022-12-20T17:21:34;7.10;99.90
580;DHT22;276;48.392;9.950;2022-12-20T17:24:01;7.10;99.90
580;DHT22;276;48.392;9.950;2022-12-20T17:26:33;7.10;99.90
580;DHT22;276;48.392;9.950;2022-12-20T17:29:04;7.10;99.90
580;DHT22;276;48.392;9.950;2022-12-20T17:31:34;7.10;99.90
580;DHT22;276;48.392;9.950;2022-12-20T17:34:18;7.10;99.90
580;DHT22;276;48.392;9.950;2022-12-20T17:36:44;7.10;99.90
580;DHT22;276;48.392;9.950;2022-12-20T17:39:16;7.10;99.90
580;DHT22;276;48.392;9.950;2022-12-20T17:41:43;7.10;99.90
580;DHT22;276;48.392;9.950;2022-12-20T17:44:25;7.10;99.90
580;DHT22;276;48.392;9.950;2022-12-20T17:46:52;7.10;99.90
580;DHT22;276;48.392;9.950;2022-12-20T17:49:19;7.10;99.90
580;DHT22;276;48.392;9.950;2022-12-20T17:51:47;7.10;99.90
580;DHT22;276;48.392;9.950;2022-12-20T17:54:18;7.10;99.90
580;DHT22;276;48.392;9.950;2022-12-20T17:56:43;7.10;99.90
580;DHT22;276;48.392;9.950;2022-12-20T17:59:10;7.20;99.90
580;DHT22;276;48.392;9.950;2022-12-20T18:01:36;7.20;99.90
580;DHT22;276;48.392;9.950;2022-12-20T18:04:07;7.20;99.90
580;DHT22;276;48.392;9.950;2022-12-20T18:06:37;7.20;99.90
580;DHT22;276;48.392;9.950;2022-12-20T18:09:04;7.20;99.90
580;DHT22;276;48.392;9.950;2022-12-20T18:11:32;7.20;99.90
580;DHT22;276;48.392;9.950;2022-12-20T18:14:00;7.20;99.90
580;DHT22;276;48.392;9.950;2022-12-20T18:16:32;7.20;99.90
580;DHT22;276;48.392;9.950;2022-12-20T18:19:00;7.20;99.90
580;DHT22;276;48.392;9.950;2022-12-20T18:21:26;7.20;99.90
580;DHT22;276;48.392;9.950;2022-12-20T18:23:55;7.20;99.90
580;DHT22;276;48.392;9.950;2022-12-20T18:28:56;7.10;99.90
580;DHT22;276;48.392;9.950;2022-12-20T18:31:26;7.10;99.90
580;DHT22;276;48.392;9.950;2022-12-20T18:33:53;7.10;99.90
580;DHT22;276;48.392;9.950;2022-12-20T18:36:25;7.10;99.90
580;DHT22;276;48.392;9.950;2022-12-20T18:38:51;7.10;99.90
580;DHT22;276;48.392;9.950;2022-12-20T18:41:24;7.10;99.90
580;DHT22;276;48.392;9.950;2022-12-20T18:43:52;7.10;99.90
580;DHT22;276;48.392;9.950;2022-12-20T18:46:20;7.10;99.90
580;DHT22;276;48.392;9.950;2022-12-20T18:48:48;7.10;99.90
580;DHT22;276;48.392;9.950;2022-12-20T18:51:16;7.10;99.90
580;DHT22;276;48.392;9.950;2022-12-20T18:53:43;7.10;99.90
580;DHT22;276;48.392;9.950;2022-12-20T18:56:15;7.10;99.90
580;DHT22;276;48.392;9.950;2022-12-20T18:58:42;7.00;99.90
580;DHT22;276;48.392;9.950;2022-12-20T19:01:30;7.00;99.90
580;DHT22;276;48.392;9.950;2022-12-20T19:04:00;7.00;99.90
580;DHT22;276;48.392;9.950;2022-12-20T19:06:28;7.00;99.90
580;DHT22;276;48.392;9.950;2022-12-20T19:08:58;7.10;99.90
580;DHT22;276;48.392;9.950;2022-12-20T19:11:27;7.00;99.90
580;DHT22;276;48.392;9.950;2022-12-20T19:13:56;7.00;99.90
580;DHT22;276;48.392;9.950;2022-12-20T19:16:26;7.00;99.90
580;DHT22;276;48.392;9.950;2022-12-20T19:18:54;7.00;99.90
580;DHT22;276;48.392;9.950;2022-12-20T19:21:25;7.00;99.90
580;DHT22;276;48.392;9.950;2022-12-20T19:23:54;7.00;99.90
580;DHT22;276;48.392;9.950;2022-12-20T19:26:22;7.00;99.90
580;DHT22;276;48.392;9.950;2022-12-20T19:28:48;7.00;99.90